sensor_id;sensor_type;location;lat;lon;timestamp;P1;durP1;ratioP1;P2;durP2;ratioP2
66118;SDS011;52912;48.564;9.302;2023-04-15T00:00:37;7.80;;;2.67;;
66118;SDS011;52912;48.564;9.302;2023-04-15T00:03:03;5.25;;;2.22;;
66118;SDS011;52912;48.564;9.302;2023-04-15T00:05:28;6.50;;;2.30;;
66118;SDS011;52912;48.564;9.302;2023-04-15T00:07:54;7.20;;;2.83;;
66118;SDS011;52912;48.564;9.302;2023-04-15T00:10:19;5.25;;;2.45;;
66118;SDS011;52912;48.564;9.302;2023-04-15T00:12:46;6.53;;;2.05;;
66118;SDS011;52912;48.564;9.302;2023-04-15T00:15:12;6.57;;;2.30;;
66118;SDS011;52912;48.564;9.302;2023-04-15T00:17:37;8.23;;;2.10;;
66118;SDS011;52912;48.564;9.302;2023-04-15T00:20:03;6.30;;;2.00;;
66118;SDS011;52912;48.564;9.302;2023-04-15T00:22:29;7.82;;;2.65;;
66118;SDS011;52912;48.564;9.302;2023-04-15T00:24:54;3.13;;;2.08;;
66118;SDS011;52912;48.564;9.302;2023-04-15T00:27:19;6.47;;;2.30;;
66118;SDS011;52912;48.564;9.302;2023-04-15T00:29:46;7.22;;;2.88;;
66118;SDS011;52912;48.564;9.302;2023-04-15T00:32:12;6.90;;;3.28;;
66118;SDS011;52912;48.564;9.302;2023-04-15T00:34:37;8.50;;;3.10;;
66118;SDS011;52912;48.564;9.302;2023-04-15T00:37:03;8.60;;;2.92;;
66118;SDS011;52912;48.564;9.302;2023-04-15T00:39:28;7.60;;;3.10;;
66118;SDS011;52912;48.564;9.302;2023-04-15T00:41:54;8.07;;;2.85;;
66118;SDS011;52912;48.564;9.302;2023-04-15T00:44:19;5.72;;;2.67;;
66118;SDS011;52912;48.564;9.302;2023-04-15T00:46:46;5.57;;;3.03;;
66118;SDS011;52912;48.564;9.302;2023-04-15T00:49:14;7.03;;;2.80;;
66118;SDS011;52912;48.564;9.302;2023-04-15T00:51:40;7.75;;;2.88;;
66118;SDS011;52912;48.564;9.302;2023-04-15T00:54:05;5.95;;;2.55;;
66118;SDS011;52912;48.564;9.302;2023-04-15T00:56:32;8.35;;;2.78;;
66118;SDS011;52912;48.564;9.302;2023-04-15T00:58:59;6.40;;;2.83;;
66118;SDS011;52912;48.564;9.302;2023-04-15T01:01:25;7.88;;;2.70;;
66118;SDS011;52912;48.564;9.302;2023-04-15T01:03:54;8.40;;;2.72;;
66118;SDS011;52912;48.564;9.302;2023-04-15T01:06:20;5.70;;;2.75;;
66118;SDS011;52912;48.564;9.302;2023-04-15T01:08:45;9.30;;;3.00;;
66118;SDS011;52912;48.564;9.302;2023-04-15T01:11:11;9.45;;;2.78;;
66118;SDS011;52912;48.564;9.302;2023-04-15T01:13:37;5.85;;;2.22;;
66118;SDS011;52912;48.564;9.302;2023-04-15T01:16:03;7.15;;;3.05;;
66118;SDS011;52912;48.564;9.302;2023-04-15T01:18:29;6.47;;;2.60;;
66118;SDS011;52912;48.564;9.302;2023-04-15T01:20:56;5.05;;;2.42;;
66118;SDS011;52912;48.564;9.302;2023-04-15T01:23:24;6.82;;;2.85;;
66118;SDS011;52912;48.564;9.302;2023-04-15T01:25:51;7.05;;;2.72;;
66118;SDS011;52912;48.564;9.302;2023-04-15T01:28:17;5.60;;;2.25;;
66118;SDS011;52912;48.564;9.302;2023-04-15T01:30:43;5.00;;;2.40;;
66118;SDS011;52912;48.564;9.302;2023-04-15T01:33:08;7.68;;;2.45;;
66118;SDS011;52912;48.564;9.302;2023-04-15T01:35:33;5.78;;;2.30;;
66118;SDS011;52912;48.564;9.302;2023-04-15T01:38:01;8.30;;;2.70;;
66118;SDS011;52912;48.564;9.302;2023-04-15T01:40:29;8.38;;;2.67;;
66118;SDS011;52912;48.564;9.302;2023-04-15T01:42:56;6.40;;;2.42;;
66118;SDS011;52912;48.564;9.302;2023-04-15T01:45:21;6.82;;;2.65;;
66118;SDS011;52912;48.564;9.302;2023-04-15T01:47:47;7.03;;;2.55;;
66118;SDS011;52912;48.564;9.302;2023-04-15T01:50:12;6.38;;;2.80;;
66118;SDS011;52912;48.564;9.302;2023-04-15T01:52:38;8.77;;;2.20;;
66118;SDS011;52912;48.564;9.302;2023-04-15T01:55:03;9.48;;;2.50;;
66118;SDS011;52912;48.564;9.302;2023-04-15T01:57:29;6.30;;;2.25;;
66118;SDS011;52912;48.564;9.302;2023-04-15T01:59:56;6.20;;;2.17;;
66118;SDS011;52912;48.564;9.302;2023-04-15T02:02:22;7.38;;;2.45;;
66118;SDS011;52912;48.564;9.302;2023-04-15T02:04:47;6.72;;;2.00;;
66118;SDS011;52912;48.564;9.302;2023-04-15T02:07:13;8.25;;;2.30;;
66118;SDS011;52912;48.564;9.302;2023-04-15T02:09:38;7.75;;;2.75;;
66118;SDS011;52912;48.564;9.302;2023-04-15T02:12:04;4.78;;;2.72;;
66118;SDS011;52912;48.564;9.302;2023-04-15T02:14:29;6.20;;;2.35;;
66118;SDS011;52912;48.564;9.302;2023-04-15T02:16:56;7.18;;;3.00;;
66118;SDS011;52912;48.564;9.302;2023-04-15T02:19:22;6.53;;;2.45;;
66118;SDS011;52912;48.564;9.302;2023-04-15T02:21:47;5.80;;;2.80;;
66118;SDS011;52912;48.564;9.302;2023-04-15T02:24:13;5.80;;;2.45;;
66118;SDS011;52912;48.564;9.302;2023-04-15T02:26:38;5.95;;;1.90;;
66118;SDS011;52912;48.564;9.302;2023-04-15T02:29:03;4.63;;;2.50;;
66118;SDS011;52912;48.564;9.302;2023-04-15T02:31:29;7.28;;;2.55;;
66118;SDS011;52912;48.564;9.302;2023-04-15T02:33:56;6.22;;;2.63;;
66118;SDS011;52912;48.564;9.302;2023-04-15T02:36:21;7.50;;;2.50;;
66118;SDS011;52912;48.564;9.302;2023-04-15T02:38:47;9.85;;;2.70;;
66118;SDS011;52912;48.564;9.302;2023-04-15T02:41:12;5.70;;;2.40;;
66118;SDS011;52912;48.564;9.302;2023-04-15T02:43:38;7.07;;;2.20;;
66118;SDS011;52912;48.564;9.302;2023-04-15T02:46:03;7.65;;;2.60;;
66118;SDS011;52912;48.564;9.302;2023-04-15T02:48:28;3.28;;;2.10;;
66118;SDS011;52912;48.564;9.302;2023-04-15T02:53:36;5.65;;;2.30;;
66118;SDS011;52912;48.564;9.302;2023-04-15T02:56:02;6.22;;;2.20;;
66118;SDS011;52912;48.564;9.302;2023-04-15T02:58:27;3.30;;;2.15;;
66118;SDS011;52912;48.564;9.302;2023-04-15T03:00:53;6.80;;;2.25;;
66118;SDS011;52912;48.564;9.302;2023-04-15T03:03:18;4.95;;;2.33;;
66118;SDS011;52912;48.564;9.302;2023-04-15T03:05:44;5.40;;;2.22;;
66118;SDS011;52912;48.564;9.302;2023-04-15T03:08:11;8.00;;;2.50;;
66118;SDS011;52912;48.564;9.302;2023-04-15T03:10:36;6.10;;;2.45;;
66118;SDS011;52912;48.564;9.302;2023-04-15T03:13:01;4.28;;;2.42;;
66118;SDS011;52912;48.564;9.302;2023-04-15T03:15:27;6.90;;;2.85;;
66118;SDS011;52912;48.564;9.302;2023-04-15T03:17:52;4.78;;;2.53;;
66118;SDS011;52912;48.564;9.302;2023-04-15T03:20:18;6.57;;;2.50;;
66118;SDS011;52912;48.564;9.302;2023-04-15T03:22:43;5.50;;;2.22;;
66118;SDS011;52912;48.564;9.302;2023-04-15T03:25:10;5.97;;;2.42;;
66118;SDS011;52912;48.564;9.302;2023-04-15T03:27:36;5.97;;;2.83;;
66118;SDS011;52912;48.564;9.302;2023-04-15T03:30:02;5.47;;;2.60;;
66118;SDS011;52912;48.564;9.302;2023-04-15T03:32:28;6.68;;;2.53;;
66118;SDS011;52912;48.564;9.302;2023-04-15T03:34:54;6.20;;;2.70;;
66118;SDS011;52912;48.564;9.302;2023-04-15T03:37:19;5.22;;;2.70;;
66118;SDS011;52912;48.564;9.302;2023-04-15T03:39:45;9.02;;;2.80;;
66118;SDS011;52912;48.564;9.302;2023-04-15T03:42:12;5.15;;;2.58;;
66118;SDS011;52912;48.564;9.302;2023-04-15T03:44:37;7.28;;;2.60;;
66118;SDS011;52912;48.564;9.302;2023-04-15T03:47:02;6.00;;;2.70;;
66118;SDS011;52912;48.564;9.302;2023-04-15T03:49:28;10.10;;;3.30;;
66118;SDS011;52912;48.564;9.302;2023-04-15T03:51:53;6.43;;;2.70;;
66118;SDS011;52912;48.564;9.302;2023-04-15T03:54:19;5.63;;;2.78;;
66118;SDS011;52912;48.564;9.302;2023-04-15T03:56:44;5.65;;;2.83;;
66118;SDS011;52912;48.564;9.302;2023-04-15T03:59:11;11.40;;;3.10;;
66118;SDS011;52912;48.564;9.302;2023-04-15T04:01:36;6.63;;;2.90;;
66118;SDS011;52912;48.564;9.302;2023-04-15T04:04:02;7.50;;;3.15;;
66118;SDS011;52912;48.564;9.302;2023-04-15T04:06:27;6.90;;;2.63;;
66118;SDS011;52912;48.564;9.302;2023-04-15T04:08:53;6.80;;;2.85;;
66118;SDS011;52912;48.564;9.302;2023-04-15T04:11:18;5.50;;;2.90;;
66118;SDS011;52912;48.564;9.302;2023-04-15T04:13:44;5.57;;;2.90;;
66118;SDS011;52912;48.564;9.302;2023-04-15T04:16:10;7.38;;;3.10;;
66118;SDS011;52912;48.564;9.302;2023-04-15T04:18:36;5.82;;;3.17;;
66118;SDS011;52912;48.564;9.302;2023-04-15T04:21:01;7.38;;;2.95;;
66118;SDS011;52912;48.564;9.302;2023-04-15T04:23:27;7.55;;;3.20;;
66118;SDS011;52912;48.564;9.302;2023-04-15T04:25:52;9.63;;;3.30;;
66118;SDS011;52912;48.564;9.302;2023-04-15T04:28:18;9.82;;;3.55;;
66118;SDS011;52912;48.564;9.302;2023-04-15T04:30:43;8.82;;;3.42;;
66118;SDS011;52912;48.564;9.302;2023-04-15T04:33:10;4.63;;;2.78;;
66118;SDS011;52912;48.564;9.302;2023-04-15T04:35:36;8.63;;;3.05;;
66118;SDS011;52912;48.564;9.302;2023-04-15T04:38:01;11.13;;;3.15;;
66118;SDS011;52912;48.564;9.302;2023-04-15T04:40:27;8.32;;;3.05;;
66118;SDS011;52912;48.564;9.302;2023-04-15T04:42:52;7.80;;;3.10;;
66118;SDS011;52912;48.564;9.302;2023-04-15T04:45:18;6.68;;;2.80;;
66118;SDS011;52912;48.564;9.302;2023-04-15T04:47:43;7.40;;;3.08;;
66118;SDS011;52912;48.564;9.302;2023-04-15T04:50:10;5.45;;;2.65;;
66118;SDS011;52912;48.564;9.302;2023-04-15T04:52:36;9.25;;;3.42;;
66118;SDS011;52912;48.564;9.302;2023-04-15T04:55:02;8.65;;;2.90;;
66118;SDS011;52912;48.564;9.302;2023-04-15T04:57:27;11.95;;;3.40;;
66118;SDS011;52912;48.564;9.302;2023-04-15T04:59:53;7.75;;;3.05;;
66118;SDS011;52912;48.564;9.302;2023-04-15T05:02:18;8.27;;;3.05;;
66118;SDS011;52912;48.564;9.302;2023-04-15T05:04:44;5.80;;;2.70;;
66118;SDS011;52912;48.564;9.302;2023-04-15T05:07:10;7.07;;;2.40;;
66118;SDS011;52912;48.564;9.302;2023-04-15T05:09:36;8.57;;;2.92;;
66118;SDS011;52912;48.564;9.302;2023-04-15T05:12:02;6.18;;;3.25;;
66118;SDS011;52912;48.564;9.302;2023-04-15T05:14:28;7.22;;;2.90;;
66118;SDS011;52912;48.564;9.302;2023-04-15T05:16:53;5.18;;;3.03;;
66118;SDS011;52912;48.564;9.302;2023-04-15T05:19:19;9.77;;;2.75;;
66118;SDS011;52912;48.564;9.302;2023-04-15T05:21:44;6.40;;;3.38;;
66118;SDS011;52912;48.564;9.302;2023-04-15T05:24:11;9.75;;;3.20;;
66118;SDS011;52912;48.564;9.302;2023-04-15T05:26:36;8.43;;;3.65;;
66118;SDS011;52912;48.564;9.302;2023-04-15T05:29:02;5.78;;;3.25;;
66118;SDS011;52912;48.564;9.302;2023-04-15T05:31:27;6.57;;;3.20;;
66118;SDS011;52912;48.564;9.302;2023-04-15T05:33:53;5.00;;;2.85;;
66118;SDS011;52912;48.564;9.302;2023-04-15T05:36:18;7.95;;;3.33;;
66118;SDS011;52912;48.564;9.302;2023-04-15T05:38:44;8.40;;;3.55;;
66118;SDS011;52912;48.564;9.302;2023-04-15T05:41:10;10.40;;;3.33;;
66118;SDS011;52912;48.564;9.302;2023-04-15T05:43:36;5.63;;;3.53;;
66118;SDS011;52912;48.564;9.302;2023-04-15T05:46:01;7.95;;;3.50;;
66118;SDS011;52912;48.564;9.302;2023-04-15T05:48:27;11.35;;;3.80;;
66118;SDS011;52912;48.564;9.302;2023-04-15T05:50:52;7.45;;;2.90;;
66118;SDS011;52912;48.564;9.302;2023-04-15T05:53:18;8.77;;;3.67;;
66118;SDS011;52912;48.564;9.302;2023-04-15T05:55:44;8.73;;;3.60;;
66118;SDS011;52912;48.564;9.302;2023-04-15T05:58:11;7.00;;;3.45;;
66118;SDS011;52912;48.564;9.302;2023-04-15T06:00:36;7.03;;;3.58;;
66118;SDS011;52912;48.564;9.302;2023-04-15T06:03:02;7.05;;;3.70;;
66118;SDS011;52912;48.564;9.302;2023-04-15T06:05:27;7.85;;;3.90;;
66118;SDS011;52912;48.564;9.302;2023-04-15T06:07:52;7.50;;;3.45;;
66118;SDS011;52912;48.564;9.302;2023-04-15T06:10:18;9.48;;;4.18;;
66118;SDS011;52912;48.564;9.302;2023-04-15T06:12:43;10.73;;;4.00;;
66118;SDS011;52912;48.564;9.302;2023-04-15T06:15:11;8.00;;;3.60;;
66118;SDS011;52912;48.564;9.302;2023-04-15T06:17:36;7.18;;;3.78;;
66118;SDS011;52912;48.564;9.302;2023-04-15T06:20:02;8.93;;;4.40;;
66118;SDS011;52912;48.564;9.302;2023-04-15T06:22:28;11.00;;;4.03;;
66118;SDS011;52912;48.564;9.302;2023-04-15T06:24:53;8.48;;;3.67;;
66118;SDS011;52912;48.564;9.302;2023-04-15T06:27:19;7.53;;;3.80;;
66118;SDS011;52912;48.564;9.302;2023-04-15T06:29:44;6.90;;;4.10;;
66118;SDS011;52912;48.564;9.302;2023-04-15T06:32:11;8.02;;;3.95;;
66118;SDS011;52912;48.564;9.302;2023-04-15T06:34:36;8.68;;;4.10;;
66118;SDS011;52912;48.564;9.302;2023-04-15T06:37:02;7.00;;;3.55;;
66118;SDS011;52912;48.564;9.302;2023-04-15T06:39:27;8.68;;;4.07;;
66118;SDS011;52912;48.564;9.302;2023-04-15T06:41:53;8.23;;;3.15;;
66118;SDS011;52912;48.564;9.302;2023-04-15T06:44:18;7.78;;;3.42;;
66118;SDS011;52912;48.564;9.302;2023-04-15T06:46:44;9.45;;;3.47;;
66118;SDS011;52912;48.564;9.302;2023-04-15T06:49:11;8.23;;;3.75;;
66118;SDS011;52912;48.564;9.302;2023-04-15T06:51:36;6.57;;;3.45;;
66118;SDS011;52912;48.564;9.302;2023-04-15T06:54:02;8.80;;;3.30;;
66118;SDS011;52912;48.564;9.302;2023-04-15T06:56:28;10.00;;;3.30;;
66118;SDS011;52912;48.564;9.302;2023-04-15T06:58:53;9.60;;;3.50;;
66118;SDS011;52912;48.564;9.302;2023-04-15T07:01:19;6.55;;;3.38;;
66118;SDS011;52912;48.564;9.302;2023-04-15T07:03:44;6.47;;;3.33;;
66118;SDS011;52912;48.564;9.302;2023-04-15T07:06:11;5.93;;;3.30;;
66118;SDS011;52912;48.564;9.302;2023-04-15T07:08:36;8.13;;;3.70;;
66118;SDS011;52912;48.564;9.302;2023-04-15T07:11:02;7.38;;;3.65;;
66118;SDS011;52912;48.564;9.302;2023-04-15T07:13:29;6.43;;;3.20;;
66118;SDS011;52912;48.564;9.302;2023-04-15T07:15:55;10.20;;;3.83;;
66118;SDS011;52912;48.564;9.302;2023-04-15T07:18:20;7.40;;;3.63;;
66118;SDS011;52912;48.564;9.302;2023-04-15T07:20:46;12.50;;;4.43;;
66118;SDS011;52912;48.564;9.302;2023-04-15T07:23:13;14.15;;;3.92;;
66118;SDS011;52912;48.564;9.302;2023-04-15T07:25:38;7.40;;;3.80;;
66118;SDS011;52912;48.564;9.302;2023-04-15T07:28:04;7.35;;;3.58;;
66118;SDS011;52912;48.564;9.302;2023-04-15T07:30:29;9.30;;;3.95;;
66118;SDS011;52912;48.564;9.302;2023-04-15T07:32:55;7.25;;;3.53;;
66118;SDS011;52912;48.564;9.302;2023-04-15T07:35:20;7.32;;;3.40;;
66118;SDS011;52912;48.564;9.302;2023-04-15T07:37:46;5.78;;;2.97;;
66118;SDS011;52912;48.564;9.302;2023-04-15T07:40:13;7.72;;;3.25;;
66118;SDS011;52912;48.564;9.302;2023-04-15T07:42:39;6.70;;;3.10;;
66118;SDS011;52912;48.564;9.302;2023-04-15T07:45:04;8.77;;;2.90;;
66118;SDS011;52912;48.564;9.302;2023-04-15T07:47:30;9.25;;;3.42;;
66118;SDS011;52912;48.564;9.302;2023-04-15T07:49:56;8.40;;;2.80;;
66118;SDS011;52912;48.564;9.302;2023-04-15T07:52:21;6.18;;;2.65;;
66118;SDS011;52912;48.564;9.302;2023-04-15T07:54:47;7.28;;;2.90;;
66118;SDS011;52912;48.564;9.302;2023-04-15T07:57:14;8.02;;;2.95;;
66118;SDS011;52912;48.564;9.302;2023-04-15T07:59:39;11.15;;;3.20;;
66118;SDS011;52912;48.564;9.302;2023-04-15T08:02:04;10.95;;;3.03;;
66118;SDS011;52912;48.564;9.302;2023-04-15T08:04:30;5.60;;;2.45;;
66118;SDS011;52912;48.564;9.302;2023-04-15T08:06:56;6.15;;;2.65;;
66118;SDS011;52912;48.564;9.302;2023-04-15T08:09:21;6.28;;;2.55;;
66118;SDS011;52912;48.564;9.302;2023-04-15T08:11:47;5.55;;;2.53;;
66118;SDS011;52912;48.564;9.302;2023-04-15T08:14:15;5.68;;;2.38;;
66118;SDS011;52912;48.564;9.302;2023-04-15T08:16:40;6.22;;;2.70;;
66118;SDS011;52912;48.564;9.302;2023-04-15T08:19:05;8.20;;;2.88;;
66118;SDS011;52912;48.564;9.302;2023-04-15T08:21:31;7.65;;;3.05;;
66118;SDS011;52912;48.564;9.302;2023-04-15T08:23:56;8.02;;;2.80;;
66118;SDS011;52912;48.564;9.302;2023-04-15T08:26:22;7.07;;;2.70;;
66118;SDS011;52912;48.564;9.302;2023-04-15T08:28:48;7.53;;;2.22;;
66118;SDS011;52912;48.564;9.302;2023-04-15T08:31:15;6.68;;;2.08;;
66118;SDS011;52912;48.564;9.302;2023-04-15T08:33:42;8.13;;;2.80;;
66118;SDS011;52912;48.564;9.302;2023-04-15T08:36:08;12.45;;;2.90;;
66118;SDS011;52912;48.564;9.302;2023-04-15T08:38:33;7.63;;;2.40;;
66118;SDS011;52912;48.564;9.302;2023-04-15T08:40:59;6.55;;;2.65;;
66118;SDS011;52912;48.564;9.302;2023-04-15T08:43:28;8.15;;;2.55;;
66118;SDS011;52912;48.564;9.302;2023-04-15T08:45:58;5.13;;;2.58;;
66118;SDS011;52912;48.564;9.302;2023-04-15T08:48:27;7.63;;;2.83;;
66118;SDS011;52912;48.564;9.302;2023-04-15T08:50:53;10.80;;;2.30;;
66118;SDS011;52912;48.564;9.302;2023-04-15T08:53:19;10.43;;;2.60;;
66118;SDS011;52912;48.564;9.302;2023-04-15T08:55:45;6.18;;;2.60;;
66118;SDS011;52912;48.564;9.302;2023-04-15T08:58:14;5.00;;;2.10;;
66118;SDS011;52912;48.564;9.302;2023-04-15T09:00:40;8.02;;;2.50;;
66118;SDS011;52912;48.564;9.302;2023-04-15T09:03:06;4.03;;;1.95;;
66118;SDS011;52912;48.564;9.302;2023-04-15T09:05:34;6.93;;;2.30;;
66118;SDS011;52912;48.564;9.302;2023-04-15T09:08:00;5.57;;;2.30;;
66118;SDS011;52912;48.564;9.302;2023-04-15T09:10:26;4.97;;;2.38;;
66118;SDS011;52912;48.564;9.302;2023-04-15T09:12:52;7.45;;;2.63;;
66118;SDS011;52912;48.564;9.302;2023-04-15T09:15:17;6.18;;;2.70;;
66118;SDS011;52912;48.564;9.302;2023-04-15T09:17:43;8.02;;;2.40;;
66118;SDS011;52912;48.564;9.302;2023-04-15T09:20:09;7.30;;;2.30;;
66118;SDS011;52912;48.564;9.302;2023-04-15T09:22:37;5.45;;;2.13;;
66118;SDS011;52912;48.564;9.302;2023-04-15T09:25:04;4.35;;;1.98;;
66118;SDS011;52912;48.564;9.302;2023-04-15T09:27:49;7.50;;;2.67;;
66118;SDS011;52912;48.564;9.302;2023-04-15T09:30:16;7.30;;;2.78;;
66118;SDS011;52912;48.564;9.302;2023-04-15T09:32:47;6.57;;;3.33;;
66118;SDS011;52912;48.564;9.302;2023-04-15T09:35:14;7.60;;;2.63;;
66118;SDS011;52912;48.564;9.302;2023-04-15T09:37:41;8.55;;;2.22;;
66118;SDS011;52912;48.564;9.302;2023-04-15T09:40:07;6.30;;;2.50;;
66118;SDS011;52912;48.564;9.302;2023-04-15T09:42:33;11.27;;;2.83;;
66118;SDS011;52912;48.564;9.302;2023-04-15T09:45:06;4.63;;;2.40;;
66118;SDS011;52912;48.564;9.302;2023-04-15T09:47:32;4.13;;;2.05;;
66118;SDS011;52912;48.564;9.302;2023-04-15T09:49:58;4.00;;;1.80;;
66118;SDS011;52912;48.564;9.302;2023-04-15T09:52:25;4.80;;;2.33;;
66118;SDS011;52912;48.564;9.302;2023-04-15T09:54:53;6.10;;;2.13;;
66118;SDS011;52912;48.564;9.302;2023-04-15T09:57:19;8.20;;;2.58;;
66118;SDS011;52912;48.564;9.302;2023-04-15T09:59:44;5.40;;;2.20;;
66118;SDS011;52912;48.564;9.302;2023-04-15T10:02:10;5.72;;;2.42;;
66118;SDS011;52912;48.564;9.302;2023-04-15T10:04:38;6.28;;;2.20;;
66118;SDS011;52912;48.564;9.302;2023-04-15T10:07:05;4.70;;;2.03;;
66118;SDS011;52912;48.564;9.302;2023-04-15T10:09:32;5.40;;;2.35;;
66118;SDS011;52912;48.564;9.302;2023-04-15T10:12:01;6.35;;;2.40;;
66118;SDS011;52912;48.564;9.302;2023-04-15T10:14:28;3.88;;;2.15;;
66118;SDS011;52912;48.564;9.302;2023-04-15T10:16:58;5.25;;;2.30;;
66118;SDS011;52912;48.564;9.302;2023-04-15T10:19:26;6.43;;;2.20;;
66118;SDS011;52912;48.564;9.302;2023-04-15T10:21:55;4.38;;;1.98;;
66118;SDS011;52912;48.564;9.302;2023-04-15T10:24:20;7.05;;;2.60;;
66118;SDS011;52912;48.564;9.302;2023-04-15T10:26:48;4.05;;;2.40;;
66118;SDS011;52912;48.564;9.302;2023-04-15T10:29:15;7.15;;;2.63;;
66118;SDS011;52912;48.564;9.302;2023-04-15T10:31:45;5.32;;;2.30;;
66118;SDS011;52912;48.564;9.302;2023-04-15T10:34:17;7.35;;;2.60;;
66118;SDS011;52912;48.564;9.302;2023-04-15T10:36:45;5.50;;;2.38;;
66118;SDS011;52912;48.564;9.302;2023-04-15T10:42:07;4.82;;;2.10;;
66118;SDS011;52912;48.564;9.302;2023-04-15T10:44:36;5.85;;;2.25;;
66118;SDS011;52912;48.564;9.302;2023-04-15T10:47:09;6.45;;;2.40;;
66118;SDS011;52912;48.564;9.302;2023-04-15T10:49:35;4.78;;;2.50;;
66118;SDS011;52912;48.564;9.302;2023-04-15T10:52:08;6.45;;;2.25;;
66118;SDS011;52912;48.564;9.302;2023-04-15T10:54:34;8.82;;;4.20;;
66118;SDS011;52912;48.564;9.302;2023-04-15T10:57:06;6.45;;;2.50;;
66118;SDS011;52912;48.564;9.302;2023-04-15T10:59:36;5.75;;;2.50;;
66118;SDS011;52912;48.564;9.302;2023-04-15T11:02:03;4.68;;;2.22;;
66118;SDS011;52912;48.564;9.302;2023-04-15T11:07:32;8.83;;;2.30;;
66118;SDS011;52912;48.564;9.302;2023-04-15T11:09:58;11.25;;;3.90;;
66118;SDS011;52912;48.564;9.302;2023-04-15T11:12:31;6.38;;;2.53;;
66118;SDS011;52912;48.564;9.302;2023-04-15T11:15:00;7.20;;;2.92;;
66118;SDS011;52912;48.564;9.302;2023-04-15T11:17:51;6.68;;;3.40;;
66118;SDS011;52912;48.564;9.302;2023-04-15T11:20:16;5.93;;;2.80;;
66118;SDS011;52912;48.564;9.302;2023-04-15T11:22:46;6.47;;;3.15;;
66118;SDS011;52912;48.564;9.302;2023-04-15T11:25:20;6.05;;;2.33;;
66118;SDS011;52912;48.564;9.302;2023-04-15T11:27:46;7.28;;;2.47;;
66118;SDS011;52912;48.564;9.302;2023-04-15T11:30:20;5.47;;;2.47;;
66118;SDS011;52912;48.564;9.302;2023-04-15T11:32:48;6.70;;;2.55;;
66118;SDS011;52912;48.564;9.302;2023-04-15T11:35:15;4.72;;;2.38;;
66118;SDS011;52912;48.564;9.302;2023-04-15T11:37:40;7.15;;;2.30;;
66118;SDS011;52912;48.564;9.302;2023-04-15T11:40:06;4.97;;;2.47;;
66118;SDS011;52912;48.564;9.302;2023-04-15T11:42:33;5.30;;;2.20;;
66118;SDS011;52912;48.564;9.302;2023-04-15T11:45:05;6.65;;;2.38;;
66118;SDS011;52912;48.564;9.302;2023-04-15T11:47:32;8.88;;;2.67;;
66118;SDS011;52912;48.564;9.302;2023-04-15T11:50:12;12.68;;;4.40;;
66118;SDS011;52912;48.564;9.302;2023-04-15T11:52:38;6.93;;;3.42;;
66118;SDS011;52912;48.564;9.302;2023-04-15T11:55:03;6.78;;;2.47;;
66118;SDS011;52912;48.564;9.302;2023-04-15T11:57:31;6.78;;;2.67;;
66118;SDS011;52912;48.564;9.302;2023-04-15T11:59:58;6.75;;;2.78;;
66118;SDS011;52912;48.564;9.302;2023-04-15T12:02:29;5.13;;;2.60;;
66118;SDS011;52912;48.564;9.302;2023-04-15T12:05:02;6.35;;;2.97;;
66118;SDS011;52912;48.564;9.302;2023-04-15T12:07:28;6.10;;;2.70;;
66118;SDS011;52912;48.564;9.302;2023-04-15T12:09:54;9.10;;;4.07;;
66118;SDS011;52912;48.564;9.302;2023-04-15T12:12:20;10.52;;;4.68;;
66118;SDS011;52912;48.564;9.302;2023-04-15T12:14:45;5.85;;;2.75;;
66118;SDS011;52912;48.564;9.302;2023-04-15T12:17:12;6.30;;;2.75;;
66118;SDS011;52912;48.564;9.302;2023-04-15T12:19:38;6.35;;;2.88;;
66118;SDS011;52912;48.564;9.302;2023-04-15T12:22:07;10.35;;;3.60;;
66118;SDS011;52912;48.564;9.302;2023-04-15T12:24:34;8.55;;;4.20;;
66118;SDS011;52912;48.564;9.302;2023-04-15T12:27:01;6.90;;;3.30;;
66118;SDS011;52912;48.564;9.302;2023-04-15T12:29:28;7.97;;;3.30;;
66118;SDS011;52912;48.564;9.302;2023-04-15T12:31:55;6.90;;;2.90;;
66118;SDS011;52912;48.564;9.302;2023-04-15T12:34:27;6.35;;;3.00;;
66118;SDS011;52912;48.564;9.302;2023-04-15T12:36:54;6.32;;;2.65;;
66118;SDS011;52912;48.564;9.302;2023-04-15T12:39:22;6.40;;;2.70;;
66118;SDS011;52912;48.564;9.302;2023-04-15T12:41:48;7.68;;;2.88;;
66118;SDS011;52912;48.564;9.302;2023-04-15T12:44:13;8.38;;;3.42;;
66118;SDS011;52912;48.564;9.302;2023-04-15T12:46:38;5.30;;;2.97;;
66118;SDS011;52912;48.564;9.302;2023-04-15T12:49:04;8.65;;;3.17;;
66118;SDS011;52912;48.564;9.302;2023-04-15T12:51:29;6.97;;;3.10;;
66118;SDS011;52912;48.564;9.302;2023-04-15T12:53:55;4.22;;;2.78;;
66118;SDS011;52912;48.564;9.302;2023-04-15T12:56:22;8.80;;;3.00;;
66118;SDS011;52912;48.564;9.302;2023-04-15T12:58:47;5.93;;;2.95;;
66118;SDS011;52912;48.564;9.302;2023-04-15T13:01:13;7.82;;;3.50;;
66118;SDS011;52912;48.564;9.302;2023-04-15T13:03:38;9.05;;;3.83;;
66118;SDS011;52912;48.564;9.302;2023-04-15T13:06:04;7.15;;;3.30;;
66118;SDS011;52912;48.564;9.302;2023-04-15T13:08:29;7.03;;;3.30;;
66118;SDS011;52912;48.564;9.302;2023-04-15T13:10:55;8.85;;;3.38;;
66118;SDS011;52912;48.564;9.302;2023-04-15T13:13:22;7.40;;;3.10;;
66118;SDS011;52912;48.564;9.302;2023-04-15T13:15:47;7.72;;;3.38;;
66118;SDS011;52912;48.564;9.302;2023-04-15T13:18:13;7.50;;;3.60;;
66118;SDS011;52912;48.564;9.302;2023-04-15T13:20:38;5.90;;;3.33;;
66118;SDS011;52912;48.564;9.302;2023-04-15T13:23:04;6.57;;;3.15;;
66118;SDS011;52912;48.564;9.302;2023-04-15T13:25:29;7.03;;;3.03;;
66118;SDS011;52912;48.564;9.302;2023-04-15T13:27:55;9.10;;;4.00;;
66118;SDS011;52912;48.564;9.302;2023-04-15T13:30:21;14.65;;;9.40;;
66118;SDS011;52912;48.564;9.302;2023-04-15T13:32:47;12.73;;;7.40;;
66118;SDS011;52912;48.564;9.302;2023-04-15T13:35:13;15.02;;;6.35;;
66118;SDS011;52912;48.564;9.302;2023-04-15T13:37:38;10.25;;;4.72;;
66118;SDS011;52912;48.564;9.302;2023-04-15T13:40:04;8.63;;;5.35;;
66118;SDS011;52912;48.564;9.302;2023-04-15T13:42:31;6.22;;;3.25;;
66118;SDS011;52912;48.564;9.302;2023-04-15T13:44:56;5.90;;;3.47;;
66118;SDS011;52912;48.564;9.302;2023-04-15T13:47:23;4.63;;;3.10;;
66118;SDS011;52912;48.564;9.302;2023-04-15T13:49:48;5.18;;;2.78;;
66118;SDS011;52912;48.564;9.302;2023-04-15T13:52:14;4.97;;;2.72;;
66118;SDS011;52912;48.564;9.302;2023-04-15T13:54:39;7.00;;;3.05;;
66118;SDS011;52912;48.564;9.302;2023-04-15T13:57:05;5.85;;;3.05;;
66118;SDS011;52912;48.564;9.302;2023-04-15T13:59:31;5.70;;;2.78;;
66118;SDS011;52912;48.564;9.302;2023-04-15T14:01:57;4.60;;;2.80;;
66118;SDS011;52912;48.564;9.302;2023-04-15T14:04:24;5.75;;;2.85;;
66118;SDS011;52912;48.564;9.302;2023-04-15T14:06:49;6.20;;;3.00;;
66118;SDS011;52912;48.564;9.302;2023-04-15T14:09:15;5.18;;;2.65;;
66118;SDS011;52912;48.564;9.302;2023-04-15T14:11:40;4.78;;;2.17;;
66118;SDS011;52912;48.564;9.302;2023-04-15T14:14:05;3.85;;;2.25;;
66118;SDS011;52912;48.564;9.302;2023-04-15T14:16:31;3.88;;;2.03;;
66118;SDS011;52912;48.564;9.302;2023-04-15T14:18:57;4.75;;;2.20;;
66118;SDS011;52912;48.564;9.302;2023-04-15T14:21:24;6.00;;;2.30;;
66118;SDS011;52912;48.564;9.302;2023-04-15T14:23:49;2.70;;;1.88;;
66118;SDS011;52912;48.564;9.302;2023-04-15T14:26:15;4.68;;;2.10;;
66118;SDS011;52912;48.564;9.302;2023-04-15T14:28:40;4.22;;;1.90;;
66118;SDS011;52912;48.564;9.302;2023-04-15T14:31:06;3.53;;;1.92;;
66118;SDS011;52912;48.564;9.302;2023-04-15T14:33:31;7.38;;;2.42;;
66118;SDS011;52912;48.564;9.302;2023-04-15T14:35:57;4.40;;;2.20;;
66118;SDS011;52912;48.564;9.302;2023-04-15T14:38:24;7.15;;;3.90;;
66118;SDS011;52912;48.564;9.302;2023-04-15T14:40:49;5.53;;;2.67;;
66118;SDS011;52912;48.564;9.302;2023-04-15T14:43:15;3.67;;;2.10;;
66118;SDS011;52912;48.564;9.302;2023-04-15T14:45:40;4.63;;;2.20;;
66118;SDS011;52912;48.564;9.302;2023-04-15T14:48:06;9.63;;;2.00;;